Pineville, MO

7:38 AM CDT on September 18, 2014 (GMT -0500)
Bentonville Municipal-Thaden | Change Station
CLOSE
Current Station
Airport
Location: Bentonville,
Elevation: 1296 ft
Nearby Weather Stations

Elev 1296 ft 36.34 °N, 94.22 °W | Updated 23 minutes ago

Rain
Rain
64 °F
Feels Like 64 °F
N
15
Wind Variable Wind from North

Today
High -- | Low -- °F
--% Chance of Precip.
Yesterday
High -- | Low -- °F
Precip. -- in
7:02 AM 7:20 PM
Waning Crescent, 27% visible
Pressure 30.05 in
Visibility 10.0 miles
Clouds Scattered Clouds 4800 ft
Overcast 6000 ft
Dew Point 59 °F
Humidity 83%
Rainfall 1.01 in
Snow Depth Not available.
UV 0 out of 12
Pollen 6.00 out of 12
Air Quality Not available.
Flu Activity Not available.
METAR KVBT 181215Z AUTO 36013KT 10SM SCT048 OVC060 18/15 A3005 RMK AO1 P0009

More Conditions Fewer Conditions

Pressure 30.05 in
Visibility 10.0 miles
Clouds Scattered Clouds 4800 ft
Overcast 6000 ft
Dew Point 59 °F
Humidity 83%
Rainfall 1.01 in
Snow Depth Not available.
UV 0 out of 12
Pollen 6.00 out of 12
Air Quality Not available.
Flu Activity Not available.
METAR KVBT 181215Z AUTO 36013KT 10SM SCT048 OVC060 18/15 A3005 RMK AO1 P0009

More Conditions Fewer Conditions

10-Day Weather Forecast

Almanac

Astronomy

Sep. 18, 2014 Rise Set
Actual Time 7:02 AM CDT 7:20 PM CDT
Civil Twilight 6:36 AM CDT 7:46 PM CDT
Nautical Twilight 6:06 AM CDT 8:16 PM CDT
Astronomical Twilight 5:35 AM CDT 8:47 PM CDT
Moon 2:01 AM CDT 4:06 PM CDT
Length of Visible Light 13h 09m
Length of Day
12h 18m
Tomorrow will be 2m 19s shorter.
Waning Crescent, 27% of the Moon is Illuminated
Today
Waning Crescent
Sep 24
New
Oct 1
First Quarter
Oct 8
Full
Oct 15
Last Quarter

Today's Extremes

State Highs State Lows

Community

WunderPhotos

Upload Photos

1,754,333 photos uploaded!

Nearby

Snow Depth

Station Depth Elevation
No new snow has been reported.

Earthquake Activity

City Distance Mag. Time & Date
No recent earthquake activity has been reported nearby.
Minimum magnitude displayed is 2.5.

Coastal Water Temperatures

Place Temperature
No Stations Reporting

Nearby Weather Stations